Latest Weather Observations for Normanton

IDQ60801

Issued at 12:32 am EST Wednesday 29 January 2020 (issued every 10 minutes, with the page automatically refreshed every 10 minutes)

About weather observations | Map of weather stations | Latest weather observations for QLD | Other Formats
Station Details ID: 029063 Name: NORMANTON AIRPORT Lat: -17.69 Lon: 141.07 Height: 18.42 m
Data from the previous 72 hours. | See also: Recent months at Normanton
Date/Time
EST
Temp
°C
App
Temp
°C
Dew
Point
°C
Rel
Hum
%
Delta-T
°C
Wind Press
QNH
hPa
Press
MSL
hPa
Rain since
9am
mm
Dir  Spd
km/h
Gust
km/h
Spd
kts
Gust
kts
29/12:30am 25.8 29.9 25.8 100 0.0 ENE 15 22 8 12 1001.3 1001.1 65.2
29/12:27am 25.9 30.5 25.9 100 0.0 ENE 13 20 7 11 1001.5 1001.3 64.8
29/12:00am 26.1 30.4 26.1 100 0.0 ENE 15 22 8 12 1001.9 1001.7 62.8
 
Date/Time
EST
Temp
°C
App
Temp
°C
Dew
Point
°C
Rel
Hum
%
Delta-T
°C
Wind Press
QNH
hPa
Press
MSL
hPa
Rain since
9am
mm
Dir  Spd
km/h
Gust
km/h
Spd
kts
Gust
kts
28/11:30pm 26.1 31.2 26.1 100 0.0 ENE 11 17 6 9 1002.3 1002.1 62.0
28/11:00pm 26.2 31.0 26.2 100 0.0 NE 13 19 7 10 1002.6 1002.4 60.6
28/10:31pm 26.2 31.7 26.2 100 0.0 ENE 9 15 5 8 1002.6 1002.4 60.4
28/10:30pm 26.2 31.7 26.2 100 0.0 ENE 9 15 5 8 1002.6 1002.4 60.4
28/10:00pm 26.3 32.3 26.1 99 0.1 N 6 9 3 5 1002.4 1002.2 59.8
28/09:39pm 26.2 31.9 25.9 98 0.2 NNE 7 11 4 6 1002.2 1002.0 59.4
28/09:30pm 26.2 31.3 25.5 96 0.5 NNE 9 15 5 8 1002.3 1002.1 59.0
28/09:28pm 26.3 31.3 25.4 95 0.6 N 9 15 5 8 1002.4 1002.2 59.0
28/09:00pm 27.0 31.1 25.2 90 1.3 NNE 13 17 7 9 1002.1 1001.9 57.2
28/08:30pm 27.0 31.1 25.2 90 1.3 N 13 19 7 10 1001.9 1001.7 57.2
28/08:00pm 27.2 30.9 25.2 89 1.4 N 15 22 8 12 1001.5 1001.3 57.2
28/07:30pm 27.2 31.7 25.2 89 1.4 N 11 17 6 9 1001.2 1001.0 57.2
28/07:00pm 27.1 31.0 24.9 88 1.5 N 13 20 7 11 1000.7 1000.5 57.2
28/06:30pm 27.5 31.5 25.1 87 1.7 N 13 19 7 10 1000.4 1000.2 57.2
28/06:00pm 27.4 31.8 25.0 87 1.7 N 11 17 6 9 1000.0 999.9 57.2
28/05:30pm 27.5 30.9 24.7 85 1.9 NNW 15 19 8 10 999.6 999.5 57.2
28/05:00pm 27.4 30.8 24.7 85 1.9 N 15 17 8 9 998.8 998.7 57.2
28/04:30pm 27.4 32.0 25.4 89 1.4 NNW 11 15 6 8 998.9 998.8 57.2
28/04:00pm 27.3 31.8 23.7 81 2.5 N 6 13 3 7 999.0 998.9 57.2
28/03:30pm 26.8 31.5 24.3 86 1.7 WNW 7 11 4 6 999.5 999.4 57.2
28/03:01pm 26.7 32.1 24.5 88 1.5 WNW 4 7 2 4 999.7 999.6 57.2
28/03:00pm 26.9 32.5 24.9 89 1.4 WNW 4 7 2 4 999.7 999.6 57.2
28/02:30pm 26.5 33.1 25.3 93 0.8 CALM 0 0 0 0 999.8 999.7 57.2
28/02:00pm 25.9 32.3 24.9 94 0.7 CALM 0 6 0 3 1000.1 1000.0 57.2
28/01:30pm 25.6 29.8 25.4 99 0.1 S 13 17 7 9 1000.5 1000.3 57.2
28/01:00pm 25.2 29.2 25.0 99 0.1 SSW 13 15 7 8 1000.9 1000.7 57.2
28/12:30pm 24.9 28.4 24.9 100 0.0 S 15 19 8 10 1001.2 1001.0 57.2
28/12:00pm 24.8 27.5 24.8 100 0.0 S 19 22 10 12 1001.5 1001.3 57.0
28/11:30am 24.5 28.2 24.5 100 0.0 S 13 17 7 9 1002.1 1001.9 56.2
28/11:00am 24.3 27.9 24.3 100 0.0 SSE 13 15 7 8 1002.3 1002.1 54.2
28/10:57am 24.3 27.9 24.3 100 0.0 S 13 17 7 9 1002.3 1002.1 54.0
28/10:30am 24.1 28.3 24.1 100 0.0 SSE 9 11 5 6 1002.4 1002.2 49.6
28/10:00am 24.0 28.7 24.0 100 0.0 SSE 6 9 3 5 1002.5 1002.3 29.8
28/09:30am 24.4 28.0 24.4 100 0.0 SSW 13 17 7 9 1002.3 1002.1 13.4
28/09:03am 24.4 29.2 24.4 100 0.0 SSW 7 11 4 6 1002.4 1002.2 0.6
28/09:00am 24.3 28.6 24.3 100 0.0 SSW 9 11 5 6 1002.4 1002.2 154.4
28/08:50am 24.3 28.6 24.3 100 0.0 SSW 9 13 5 7 1002.2 1002.0 153.0
28/08:35am 24.3 27.9 24.3 100 0.0 SW 13 15 7 8 1002.0 1001.8 152.2
28/08:30am 24.3 27.9 24.3 100 0.0 SW 13 15 7 8 1002.0 1001.8 151.2
28/08:28am 24.3 27.9 24.3 100 0.0 SSW 13 15 7 8 1002.0 1001.8 151.0
28/08:11am 24.3 27.9 24.3 100 0.0 SSW 13 19 7 10 1002.1 1001.9 149.8
28/08:00am 24.4 28.0 24.4 100 0.0 S 13 17 7 9 1002.1 1001.9 147.0
28/07:39am 24.2 27.7 24.2 100 0.0 SW 13 20 7 11 1001.8 1001.6 141.4
28/07:34am 24.3 27.5 24.3 100 0.0 SW 15 20 8 11 1001.6 1001.4 140.2
28/07:30am 24.3 27.5 24.3 100 0.0 SSW 15 20 8 11 1001.8 1001.6 139.6
28/07:18am 24.3 27.9 24.3 100 0.0 S 13 17 7 9 1001.5 1001.3 138.8
28/07:00am 24.9 30.0 24.9 100 0.0 SE 7 9 4 5 1001.2 1001.0 136.8
28/06:30am 24.9 30.2 24.9 100 0.0 E 6 9 3 5 1001.0 1000.8 136.2
28/06:00am 24.8 31.1 24.8 100 0.0 CALM 0 0 0 0 1000.9 1000.7 136.0
28/05:30am 24.7 30.6 24.7 100 0.0 SE 2 7 1 4 1000.7 1000.5 136.0
28/05:16am 24.7 30.6 24.7 100 0.0 SE 2 7 1 4 1000.7 1000.5 135.8
28/05:00am 24.7 29.8 24.7 100 0.0 E 6 11 3 6 1000.7 1000.5 135.6
28/04:40am 24.7 29.8 24.7 100 0.0 SE 6 9 3 5 1000.8 1000.6 135.2
28/04:31am 24.7 29.6 24.7 100 0.0 SE 7 9 4 5 1000.8 1000.6 135.0
28/04:30am 24.7 29.6 24.7 100 0.0 SE 7 9 4 5 1000.8 1000.6 135.0
28/04:17am 24.7 29.6 24.7 100 0.0 SE 7 11 4 6 1000.8 1000.6 135.0
28/04:06am 24.7 29.8 24.7 100 0.0 ESE 6 9 3 5 1000.8 1000.6 135.0
28/04:00am 24.7 29.8 24.7 100 0.0 SE 6 9 3 5 1000.8 1000.6 135.0
28/03:47am 24.7 29.8 24.7 100 0.0 SE 6 11 3 6 1000.8 1000.6 135.0
28/03:30am 24.6 29.5 24.6 100 0.0 SE 7 9 4 5 1001.0 1000.8 135.0
28/03:14am 24.6 29.1 24.6 100 0.0 SSE 9 11 5 6 1001.1 1000.9 135.0
28/03:00am 24.5 28.9 24.5 100 0.0 SE 9 11 5 6 1001.0 1000.8 134.8
28/02:58am 24.6 29.5 24.6 100 0.0 SE 7 9 4 5 1001.0 1000.8 134.8
28/02:30am 24.5 29.5 24.5 100 0.0 E 6 9 3 5 1001.6 1001.4 134.8
28/02:14am 24.5 29.9 24.5 100 0.0 E 4 7 2 4 1001.8 1001.6 134.6
28/02:00am 24.5 29.3 24.5 100 0.0 ESE 7 13 4 7 1002.0 1001.8 134.4
28/01:57am 24.5 29.3 24.5 100 0.0 ESE 7 13 4 7 1001.9 1001.7 134.4
28/01:30am 24.4 28.4 24.4 100 0.0 ESE 11 17 6 9 1002.3 1002.1 134.0
28/01:08am 24.5 28.9 24.5 100 0.0 E 9 13 5 7 1002.7 1002.5 134.0
28/01:03am 24.4 28.8 24.4 100 0.0 E 9 13 5 7 1002.8 1002.6 134.0
28/01:00am 24.4 28.8 24.4 100 0.0 E 9 13 5 7 1002.9 1002.7 134.0
28/12:57am 24.4 28.8 24.4 100 0.0 ENE 9 13 5 7 1003.0 1002.8 133.8
28/12:30am 24.4 28.8 24.4 100 0.0 ENE 9 15 5 8 1003.5 1003.3 131.2
28/12:23am 24.4 28.4 24.4 100 0.0 E 11 17 6 9 1003.6 1003.4 130.6
28/12:00am 24.4 28.8 24.4 100 0.0 E 9 17 5 9 1003.8 1003.6 116.4
 
Date/Time
EST
Temp
°C
App
Temp
°C
Dew
Point
°C
Rel
Hum
%
Delta-T
°C
Wind Press
QNH
hPa
Press
MSL
hPa
Rain since
9am
mm
Dir  Spd
km/h
Gust
km/h
Spd
kts
Gust
kts
27/11:55pm 24.4 28.8 24.4 100 0.0 ENE 9 17 5 9 1003.8 1003.6 113.8
27/11:30pm 24.2 28.5 24.2 100 0.0 ENE 9 13 5 7 1004.4 1004.2 104.4
27/11:00pm 24.0 28.1 24.0 100 0.0 ESE 9 13 5 7 1004.6 1004.4 85.0
27/10:55pm 24.0 28.5 24.0 100 0.0 ESE 7 15 4 8 1004.6 1004.4 83.0
27/10:30pm 24.0 28.1 24.0 100 0.0 ESE 9 15 5 8 1004.7 1004.5 72.6
27/10:11pm 24.0 28.1 24.0 100 0.0 ENE 9 15 5 8 1004.8 1004.6 67.8
27/10:00pm 24.0 27.8 24.0 100 0.0 ENE 11 17 6 9 1004.8 1004.6 66.2
27/09:56pm 24.0 27.8 24.0 100 0.0 ENE 11 17 6 9 1004.7 1004.5 66.0
27/09:30pm 24.0 27.8 24.0 100 0.0 ESE 11 17 6 9 1004.8 1004.6 63.0
27/09:14pm 24.0 27.4 24.0 100 0.0 ESE 13 22 7 12 1004.8 1004.6 60.8
27/09:01pm 24.0 27.8 24.0 100 0.0 E 11 15 6 8 1004.7 1004.5 56.0
27/09:00pm 24.0 27.8 24.0 100 0.0 E 11 15 6 8 1004.7 1004.5 55.8
27/08:46pm 23.9 27.6 23.9 100 0.0 SW 11 17 6 9 1004.9 1004.7 54.2
27/08:30pm 23.8 27.4 23.8 100 0.0 ESE 11 19 6 10 1004.1 1003.9 53.4
27/08:25pm 23.8 27.4 23.8 100 0.0 E 11 19 6 10 1003.9 1003.7 52.6
27/08:15pm 23.8 27.4 23.8 100 0.0 ESE 11 17 6 9 1003.9 1003.7 51.4
27/08:03pm 23.7 27.3 23.7 100 0.0 ESE 11 17 6 9 1003.7 1003.5 50.8
27/08:00pm 23.7 27.3 23.7 100 0.0 ESE 11 17 6 9 1003.6 1003.4 50.4
27/07:58pm 23.7 27.3 23.7 100 0.0 ESE 11 17 6 9 1003.6 1003.4 50.4
27/07:52pm 23.7 26.9 23.7 100 0.0 ESE 13 20 7 11 1003.5 1003.3 49.4
27/07:31pm 23.9 28.0 23.9 100 0.0 E 9 13 5 7 1003.8 1003.6 48.0
27/07:30pm 23.9 28.0 23.9 100 0.0 ESE 9 13 5 7 1003.8 1003.6 47.8
27/07:00pm 23.9 27.6 23.9 100 0.0 ESE 11 17 6 9 1003.5 1003.3 45.8
27/06:56pm 23.9 27.6 23.9 100 0.0 ESE 11 17 6 9 1003.5 1003.3 45.6
27/06:30pm 23.9 27.2 23.9 100 0.0 SSE 13 19 7 10 1003.2 1003.0 42.4
27/06:04pm 23.8 26.3 23.8 100 0.0 SSE 17 22 9 12 1003.5 1003.3 33.2
27/06:00pm 23.9 26.8 23.9 100 0.0 SE 15 20 8 11 1003.7 1003.5 30.4
27/05:46pm 24.1 26.8 24.1 100 0.0 SE 17 22 9 12 1003.7 1003.5 27.0
27/05:43pm 24.1 27.0 23.9 99 0.1 SE 15 22 8 12 1003.6 1003.4 26.4
27/05:30pm 24.9 28.4 24.9 100 0.0 SE 15 20 8 11 1003.5 1003.3 25.0
27/05:22pm 25.2 29.7 25.2 100 0.0 SSE 11 17 6 9 1003.7 1003.5 22.2
27/05:13pm 25.2 30.1 25.2 100 0.0 SE 9 13 5 7 1003.6 1003.4 21.0
27/05:00pm 25.2 29.7 25.2 100 0.0 SE 11 17 6 9 1003.5 1003.3 21.0
27/04:38pm 25.5 31.6 25.0 97 0.3 NE 2 9 1 5 1003.9 1003.7 18.0
27/04:30pm 25.7 31.5 25.2 97 0.3 ENE 4 11 2 6 1003.6 1003.4 16.6
27/04:25pm 25.7 31.0 25.2 97 0.3 NE 7 13 4 7 1003.5 1003.3 15.8
27/04:23pm 25.7 30.8 25.0 96 0.5 NE 7 15 4 8 1003.5 1003.3 15.4
27/04:00pm 26.5 31.6 25.6 95 0.6 E 9 17 5 9 1002.9 1002.7 13.8
27/03:43pm 26.3 30.5 25.4 95 0.6 ENE 13 17 7 9 1002.9 1002.7 13.8
27/03:31pm 26.1 29.8 25.1 94 0.7 NE 15 22 8 12 1003.0 1002.8 13.8
27/03:30pm 26.1 29.6 24.9 93 0.8 NE 15 22 8 12 1003.0 1002.8 13.8
27/03:00pm 27.0 31.4 25.6 92 1.0 ENE 13 20 7 11 1003.3 1003.1 13.4
27/02:39pm 26.2 30.4 25.3 95 0.6 NE 13 19 7 10 1003.5 1003.3 13.4
27/02:33pm 26.4 31.3 25.9 97 0.4 NE 11 15 6 8 1003.6 1003.4 13.4
27/02:30pm 26.1 31.0 25.8 98 0.2 NE 11 15 6 8 1003.7 1003.5 13.4
27/02:22pm 25.7 30.2 25.2 97 0.3 NE 11 15 6 8 1004.0 1003.8 13.4
27/02:00pm 25.5 30.2 25.5 100 0.0 NE 11 17 6 9 1004.5 1004.3 13.4
27/01:57pm 25.5 30.6 25.5 100 0.0 NE 9 15 5 8 1004.6 1004.4 13.4
27/01:44pm 24.7 28.6 24.2 97 0.3 NE 11 20 6 11 1004.5 1004.3 13.0
27/01:31pm 25.9 30.0 25.2 96 0.5 NNE 13 20 7 11 1004.9 1004.7 7.6
27/01:30pm 26.0 30.2 25.3 96 0.5 NNE 13 20 7 11 1004.9 1004.7 6.8
27/01:02pm 27.1 32.3 25.7 92 1.0 N 9 13 5 7 1005.2 1005.0 4.8
27/01:00pm 26.9 32.0 25.5 92 1.0 N 9 15 5 8 1005.2 1005.0 4.8
27/12:30pm 26.5 31.6 25.6 95 0.6 N 9 13 5 7 1004.9 1004.7 4.8
27/12:24pm 26.3 30.9 25.3 94 0.7 N 11 15 6 8 1005.0 1004.8 4.8
27/12:00pm 25.7 30.7 25.4 98 0.2 N 9 11 5 6 1005.4 1005.2 4.8
27/11:30am 25.2 30.1 25.2 100 0.0 N 9 13 5 7 1005.6 1005.4 4.8
27/11:00am 24.9 29.6 24.9 100 0.0 NNE 9 15 5 8 1006.0 1005.8 4.8
27/10:30am 24.8 28.7 24.8 100 0.0 N 13 17 7 9 1006.2 1006.0 4.2
27/10:18am 24.8 28.3 24.8 100 0.0 NNW 15 17 8 9 1006.3 1006.1 4.0
27/10:15am 24.7 28.1 24.7 100 0.0 NNW 15 19 8 10 1006.3 1006.1 3.8
27/10:05am 24.6 28.0 24.6 100 0.0 NNW 15 19 8 10 1006.3 1006.1 3.4
27/10:00am 24.6 28.0 24.6 100 0.0 NNW 15 19 8 10 1006.4 1006.2 3.2
27/09:30am 24.4 28.0 24.4 100 0.0 N 13 17 7 9 1006.4 1006.2 1.8
27/09:00am 24.5 28.2 24.5 100 0.0 N 13 17 7 9 1006.5 1006.3 35.0
27/08:40am 24.5 28.6 24.5 100 0.0 NNW 11 17 6 9 1006.0 1005.8 34.6
27/08:30am 24.4 27.3 24.4 100 0.0 NNW 17 26 9 14 1006.0 1005.8 34.2
27/08:00am 24.8 25.3 24.6 99 0.1 NNW 30 41 16 22 1006.0 1005.8 28.0
27/07:55am 25.0 26.3 24.7 98 0.2 NNW 26 35 14 19 1006.0 1005.8 27.0
27/07:30am 25.0 30.3 25.0 100 0.0 N 6 13 3 7 1006.2 1006.0 24.8
27/07:00am 24.6 29.3 24.3 98 0.2 ENE 7 9 4 5 1005.9 1005.7 23.2
27/06:37am 24.7 28.8 24.5 99 0.1 NNE 11 15 6 8 1005.5 1005.3 23.2
27/06:30am 24.4 28.1 23.9 97 0.3 NNE 11 15 6 8 1005.2 1005.0 23.2
27/06:10am 24.8 26.3 24.3 97 0.3 NW 24 35 13 19 1005.6 1005.4 18.8
27/06:07am 24.9 26.2 24.0 95 0.6 NW 24 35 13 19 1005.6 1005.4 17.8
27/06:02am 25.1 26.7 23.9 93 0.8 WNW 22 35 12 19 1005.6 1005.4 16.6
27/06:00am 25.4 27.3 23.8 91 1.1 WNW 20 30 11 16 1005.5 1005.3 16.0
27/05:48am 26.9 32.1 26.9 100 0.0 NNW 13 19 7 10 1005.0 1004.8 15.4
27/05:47am 26.9 32.0 26.7 99 0.1 NNW 13 19 7 10 1005.0 1004.8 15.4
27/05:30am 27.0 32.7 26.5 97 0.4 NE 9 13 5 7 1004.9 1004.7 13.6
27/05:00am 27.0 32.7 26.5 97 0.4 NE 9 13 5 7 1004.6 1004.4 13.6
27/04:30am 26.9 32.0 26.2 96 0.5 NE 11 17 6 9 1004.3 1004.1 13.6
27/04:00am 27.1 31.7 26.0 94 0.8 NE 13 22 7 12 1004.0 1003.8 13.6
27/03:30am 27.0 32.1 26.1 95 0.6 NE 11 15 6 8 1003.9 1003.7 13.6
27/03:00am 27.2 32.4 26.3 95 0.6 NNE 11 17 6 9 1004.4 1004.2 13.6
27/02:30am 27.2 33.1 26.7 97 0.4 NE 9 13 5 7 1004.5 1004.3 13.6
27/02:00am 27.1 32.9 26.6 97 0.4 NE 9 15 5 8 1004.5 1004.3 13.6
27/01:30am 27.3 33.1 26.6 96 0.5 NE 9 17 5 9 1005.0 1004.8 13.6
27/01:00am 27.2 32.5 26.5 96 0.5 NE 11 20 6 11 1005.6 1005.4 13.6
27/12:30am 27.3 32.4 26.2 94 0.8 NE 11 19 6 10 1006.3 1006.1 13.6
27/12:00am 27.4 32.3 25.8 91 1.1 NE 11 17 6 9 1006.8 1006.6 13.6
 
Date/Time
EST
Temp
°C
App
Temp
°C
Dew
Point
°C
Rel
Hum
%
Delta-T
°C
Wind Press
QNH
hPa
Press
MSL
hPa
Rain since
9am
mm
Dir  Spd
km/h
Gust
km/h
Spd
kts
Gust
kts
26/11:30pm 27.7 32.9 25.7 89 1.4 NE 9 15 5 8 1007.0 1006.8 13.6
26/11:00pm 28.0 32.8 26.2 90 1.3 NNE 13 20 7 11 1007.1 1006.9 13.6
26/10:30pm 28.2 33.6 26.6 91 1.1 NE 11 17 6 9 1007.1 1006.9 13.6
26/10:00pm 28.5 34.2 26.5 89 1.4 NE 9 15 5 8 1007.0 1006.8 13.6
26/09:30pm 28.7 34.4 26.5 88 1.6 NNE 9 11 5 6 1006.7 1006.5 13.6
26/09:00pm 28.9 34.5 26.3 86 1.9 NNE 9 15 5 8 1006.8 1006.6 13.6
26/08:30pm 29.2 34.9 26.4 85 2.0 NNE 9 15 5 8 1006.4 1006.2 13.6
26/08:00pm 29.3 34.0 26.1 83 2.3 N 13 20 7 11 1005.7 1005.5 13.6
26/07:30pm 29.6 33.3 25.8 80 2.7 NNW 17 20 9 11 1005.4 1005.2 13.6
26/07:00pm 30.0 33.3 25.7 78 3.1 N 19 28 10 15 1005.0 1004.8 13.6
26/06:30pm 30.2 32.9 25.0 73 3.7 N 20 32 11 17 1004.6 1004.4 13.6
26/06:00pm 30.9 33.5 25.5 73 3.8 N 22 30 12 16 1004.4 1004.2 13.6
26/05:30pm 30.5 33.5 25.6 75 3.5 N 20 28 11 15 1004.2 1004.0 13.6
26/05:00pm 30.9 34.2 25.7 74 3.7 N 19 28 10 15 1003.9 1003.7 13.6
26/04:30pm 30.8 33.7 25.4 73 3.8 N 20 30 11 16 1004.0 1003.8 13.6
26/04:00pm 30.9 34.9 26.2 76 3.4 N 17 24 9 13 1004.7 1004.5 13.6
26/03:30pm 31.0 35.2 26.5 77 3.2 N 17 26 9 14 1005.1 1004.9 13.6
26/03:00pm 30.3 34.9 26.5 80 2.7 NNE 15 22 8 12 1005.5 1005.3 13.4
26/02:30pm 29.3 33.7 26.3 84 2.1 N 15 20 8 11 1005.9 1005.7 13.4
26/02:00pm 29.0 34.0 26.0 84 2.1 N 11 17 6 9 1006.5 1006.3 13.4
26/01:30pm 28.5 33.1 25.9 86 1.8 N 13 17 7 9 1006.5 1006.3 13.4
26/01:00pm 28.1 33.0 25.9 88 1.6 N 11 15 6 8 1006.8 1006.6 13.4
26/12:30pm 27.5 32.7 25.7 90 1.3 N 9 17 5 9 1007.4 1007.2 13.4
26/12:00pm 27.5 31.7 25.9 91 1.1 N 15 22 8 12 1008.0 1007.8 13.4
26/11:30am 27.1 33.5 26.6 97 0.4 NNE 6 9 3 5 1008.3 1008.1 13.4
26/11:00am 26.8 31.7 25.9 95 0.6 NNE 11 15 6 8 1008.4 1008.2 13.4
26/10:30am 26.7 32.6 26.7 100 0.0 N 9 11 5 6 1008.4 1008.2 13.4
26/10:00am 26.3 31.9 26.3 100 0.0 NNE 9 13 5 7 1008.6 1008.4 13.0
26/09:36am 25.9 31.8 25.9 100 0.0 ENE 6 11 3 6 1008.6 1008.4 12.6
26/09:30am 25.9 31.8 25.9 100 0.0 SSW 6 11 3 6 1008.7 1008.5 12.6
26/09:08am 26.3 30.4 26.3 100 0.0 NW 17 28 9 15 1009.8 1009.6 2.8
26/09:00am 26.4 31.3 26.4 100 0.0 NW 13 17 7 9 1009.3 1009.1 6.6
26/08:57am 26.4 31.3 26.4 100 0.0 NW 13 15 7 8 1009.2 1009.0 6.6
26/08:37am 26.4 30.6 25.4 94 0.7 NNW 13 20 7 11 1008.7 1008.5 5.4
26/08:30am 26.8 31.0 25.4 92 1.0 NW 13 20 7 11 1008.5 1008.3 3.8
26/08:00am 27.0 32.9 26.7 98 0.2 ENE 9 13 5 7 1008.1 1007.9 3.2
26/07:30am 26.9 33.1 26.4 97 0.4 ENE 6 11 3 6 1008.3 1008.1 3.2
26/07:00am 26.8 32.7 26.8 100 0.0 NE 9 15 5 8 1007.7 1007.5 3.2
26/06:30am 26.7 32.6 26.7 100 0.0 NE 9 13 5 7 1007.1 1006.9 3.2
26/06:00am 26.8 32.7 26.8 100 0.0 NE 9 13 5 7 1006.8 1006.6 3.0
26/05:30am 26.8 32.6 26.6 99 0.1 NE 9 13 5 7 1006.3 1006.1 2.6
26/05:00am 26.7 32.8 26.5 99 0.1 ENE 7 11 4 6 1006.1 1005.9 2.6
26/04:30am 26.7 32.4 26.5 99 0.1 ENE 9 11 5 6 1006.2 1006.0 2.6
26/04:00am 26.9 32.7 26.6 98 0.2 NE 9 13 5 7 1006.1 1005.9 2.6
26/03:33am 27.0 32.5 26.7 98 0.2 NNE 11 17 6 9 1006.2 1006.0 2.6
26/03:30am 27.0 32.3 26.5 97 0.4 NE 11 17 6 9 1006.0 1005.8 2.6
26/03:14am 27.1 32.5 26.6 97 0.4 NNE 11 15 6 8 1006.0 1005.8 2.0
26/03:00am 27.4 33.5 26.5 95 0.6 ENE 7 15 4 8 1006.0 1005.8 0.2
26/02:30am 27.3 33.0 26.4 95 0.6 ENE 9 13 5 7 1006.2 1006.0 0.2
26/02:00am 27.4 33.3 26.7 96 0.5 ENE 9 13 5 7 1006.1 1005.9 0.2
26/01:30am 27.6 33.6 26.9 96 0.5 NE 9 13 5 7 1006.7 1006.5 0.2
26/01:00am 26.7 32.1 25.5 93 0.8 ENE 7 11 4 6 1007.0 1006.8 0.2
26/12:49am 26.5 32.5 24.3 88 1.5 CALM 0 6 0 3 1007.1 1006.9 0.2
26/12:33am 27.2 30.8 23.7 81 2.4 NNW 11 13 6 7 1007.7 1007.5 0.2

Other formats

Comma delimited format used in spreadsheet applications
http://www.bom.gov.au/fwo/IDQ60801/IDQ60801.94266.axf

JavaScript Object Notation format (JSON) in row-major order
http://www.bom.gov.au/fwo/IDQ60801/IDQ60801.94266.json

Data quality

Most of these data are generated automatically and are frequently updated. Quality checks on data are not normally performed. It is possible for incorrect values to appear. Refer to information at About Latest Weather Observations and please check the disclaimer before using these data.